sensor_id;sensor_type;location;lat;lon;timestamp;pressure;altitude;pressure_sealevel;temperature;humidity
22047;BME280;11187;49.412;20.956;2023-01-15T00:00:03;94933.19;;;1.40;100.00
22047;BME280;11187;49.412;20.956;2023-01-15T00:02:44;94939.91;;;1.40;100.00
22047;BME280;11187;49.412;20.956;2023-01-15T00:05:24;94924.75;;;1.38;100.00
22047;BME280;11187;49.412;20.956;2023-01-15T00:08:04;94923.03;;;1.36;100.00
22047;BME280;11187;49.412;20.956;2023-01-15T00:10:44;94907.91;;;1.36;100.00
22047;BME280;11187;49.412;20.956;2023-01-15T00:13:24;94907.91;;;1.34;100.00
22047;BME280;11187;49.412;20.956;2023-01-15T00:16:18;94902.81;;;1.31;100.00
22047;BME280;11187;49.412;20.956;2023-01-15T00:18:59;94895.25;;;1.33;100.00
22047;BME280;11187;49.412;20.956;2023-01-15T00:21:40;94889.34;;;1.31;100.00
22047;BME280;11187;49.412;20.956;2023-01-15T00:24:20;94889.31;;;1.29;100.00
22047;BME280;11187;49.412;20.956;2023-01-15T00:27:19;94885.94;;;1.25;100.00
22047;BME280;11187;49.412;20.956;2023-01-15T00:30:13;94880.88;;;1.25;100.00
22047;BME280;11187;49.412;20.956;2023-01-15T00:32:53;94879.19;;;1.23;100.00
22047;BME280;11187;49.412;20.956;2023-01-15T00:35:33;94868.22;;;1.22;100.00
22047;BME280;11187;49.412;20.956;2023-01-15T00:38:13;94866.53;;;1.21;100.00
22047;BME280;11187;49.412;20.956;2023-01-15T00:41:07;94870.72;;;1.21;100.00
22047;BME280;11187;49.412;20.956;2023-01-15T00:43:40;94873.25;;;1.22;100.00
22047;BME280;11187;49.412;20.956;2023-01-15T00:46:34;94870.72;;;1.21;100.00
22047;BME280;11187;49.412;20.956;2023-01-15T00:49:28;94862.38;;;1.23;100.00
22047;BME280;11187;49.412;20.956;2023-01-15T00:52:01;94864.91;;;1.25;100.00
22047;BME280;11187;49.412;20.956;2023-01-15T00:54:48;94859.88;;;1.27;100.00
22047;BME280;11187;49.412;20.956;2023-01-15T00:57:22;94855.66;;;1.27;100.00
22047;BME280;11187;49.412;20.956;2023-01-15T01:00:10;94859.06;;;1.29;100.00
22047;BME280;11187;49.412;20.956;2023-01-15T01:02:44;94860.72;;;1.27;100.00
22047;BME280;11187;49.412;20.956;2023-01-15T01:05:31;94854.00;;;1.29;100.00
22047;BME280;11187;49.412;20.956;2023-01-15T01:08:04;94864.97;;;1.31;100.00
22047;BME280;11187;49.412;20.956;2023-01-15T01:11:00;94858.22;;;1.29;100.00
22047;BME280;11187;49.412;20.956;2023-01-15T01:13:34;94856.53;;;1.29;100.00
22047;BME280;11187;49.412;20.956;2023-01-15T01:19:00;94854.00;;;1.29;100.00
22047;BME280;11187;49.412;20.956;2023-01-15T01:21:54;94848.16;;;1.30;100.00
22047;BME280;11187;49.412;20.956;2023-01-15T01:24:27;94843.13;;;1.30;100.00
22047;BME280;11187;49.412;20.956;2023-01-15T01:27:16;94844.78;;;1.31;100.00
22047;BME280;11187;49.412;20.956;2023-01-15T01:29:50;94836.41;;;1.32;100.00
22047;BME280;11187;49.412;20.956;2023-01-15T01:32:37;94839.81;;;1.34;100.00
22047;BME280;11187;49.412;20.956;2023-01-15T01:35:11;94828.88;;;1.35;100.00
22047;BME280;11187;49.412;20.956;2023-01-15T01:38:05;94828.91;;;1.38;100.00
22047;BME280;11187;49.412;20.956;2023-01-15T01:40:59;94821.31;;;1.35;100.00
22047;BME280;11187;49.412;20.956;2023-01-15T01:44:01;94818.78;;;1.35;100.00
22047;BME280;11187;49.412;20.956;2023-01-15T01:46:55;94818.81;;;1.38;100.00
22047;BME280;11187;49.412;20.956;2023-01-15T01:49:55;94813.75;;;1.35;100.00
22047;BME280;11187;49.412;20.956;2023-01-15T01:52:34;94806.19;;;1.38;100.00
22047;BME280;11187;49.412;20.956;2023-01-15T01:55:23;94801.16;;;1.38;100.00
22047;BME280;11187;49.412;20.956;2023-01-15T01:58:03;94806.22;;;1.37;100.00
22047;BME280;11187;49.412;20.956;2023-01-15T02:00:50;94802.84;;;1.38;100.00
22047;BME280;11187;49.412;20.956;2023-01-15T02:03:30;94796.97;;;1.37;100.00
22047;BME280;11187;49.412;20.956;2023-01-15T02:06:26;94803.69;;;1.37;100.00
22047;BME280;11187;49.412;20.956;2023-01-15T02:09:21;94797.81;;;1.39;100.00
22047;BME280;11187;49.412;20.956;2023-01-15T02:12:01;94789.44;;;1.42;100.00
22047;BME280;11187;49.412;20.956;2023-01-15T02:15:02;94790.28;;;1.41;100.00
22047;BME280;11187;49.412;20.956;2023-01-15T02:18:00;94782.72;;;1.42;100.00
22047;BME280;11187;49.412;20.956;2023-01-15T02:20:55;94785.28;;;1.45;100.00
22047;BME280;11187;49.412;20.956;2023-01-15T02:23:43;94780.28;;;1.49;100.00
22047;BME280;11187;49.412;20.956;2023-01-15T02:29:56;94782.00;;;1.54;100.00
22047;BME280;11187;49.412;20.956;2023-01-15T02:32:54;94778.63;;;1.54;100.00
22047;BME280;11187;49.412;20.956;2023-01-15T02:35:55;94768.53;;;1.54;100.00
22047;BME280;11187;49.412;20.956;2023-01-15T02:38:36;94766.91;;;1.59;100.00
22047;BME280;11187;49.412;20.956;2023-01-15T02:41:30;94763.53;;;1.58;100.00
22047;BME280;11187;49.412;20.956;2023-01-15T02:44:07;94756.00;;;1.60;100.00
22047;BME280;11187;49.412;20.956;2023-01-15T02:46:54;94748.44;;;1.60;100.00
22047;BME280;11187;49.412;20.956;2023-01-15T02:49:28;94753.50;;;1.61;100.00
22047;BME280;11187;49.412;20.956;2023-01-15T02:52:28;94750.97;;;1.61;100.00
22047;BME280;11187;49.412;20.956;2023-01-15T02:55:32;94742.56;;;1.62;100.00
22047;BME280;11187;49.412;20.956;2023-01-15T02:58:10;94750.09;;;1.61;100.00
22047;BME280;11187;49.412;20.956;2023-01-15T03:01:00;94751.81;;;1.62;100.00
22047;BME280;11187;49.412;20.956;2023-01-15T03:06:40;94737.50;;;1.61;100.00
22047;BME280;11187;49.412;20.956;2023-01-15T03:09:16;94726.56;;;1.60;100.00
22047;BME280;11187;49.412;20.956;2023-01-15T03:12:15;94744.22;;;1.60;100.00
22047;BME280;11187;49.412;20.956;2023-01-15T03:15:00;94740.03;;;1.62;100.00
22047;BME280;11187;49.412;20.956;2023-01-15T03:17:57;94749.28;;;1.60;100.00
22047;BME280;11187;49.412;20.956;2023-01-15T03:20:31;94737.50;;;1.61;100.00
22047;BME280;11187;49.412;20.956;2023-01-15T03:23:27;94736.63;;;1.59;100.00
22047;BME280;11187;49.412;20.956;2023-01-15T03:26:22;94738.34;;;1.60;100.00
22047;BME280;11187;49.412;20.956;2023-01-15T03:28:55;94736.69;;;1.62;100.00
22047;BME280;11187;49.412;20.956;2023-01-15T03:31:51;94724.91;;;1.62;100.00
22047;BME280;11187;49.412;20.956;2023-01-15T03:34:54;94724.06;;;1.62;100.00
22047;BME280;11187;49.412;20.956;2023-01-15T03:37:49;94733.31;;;1.63;100.00
22047;BME280;11187;49.412;20.956;2023-01-15T03:41:28;94729.13;;;1.65;100.00
22047;BME280;11187;49.412;20.956;2023-01-15T03:44:36;94729.97;;;1.65;100.00
22047;BME280;11187;49.412;20.956;2023-01-15T03:47:49;94722.44;;;1.67;100.00
22047;BME280;11187;49.412;20.956;2023-01-15T03:53:32;94719.06;;;1.68;100.00
22047;BME280;11187;49.412;20.956;2023-01-15T03:56:35;94721.59;;;1.70;100.00
22047;BME280;11187;49.412;20.956;2023-01-15T03:59:53;94708.16;;;1.71;100.00
22047;BME280;11187;49.412;20.956;2023-01-15T04:02:48;94717.44;;;1.73;100.00
22047;BME280;11187;49.412;20.956;2023-01-15T04:05:44;94709.06;;;1.76;100.00
22047;BME280;11187;49.412;20.956;2023-01-15T04:08:41;94700.63;;;1.75;100.00
22047;BME280;11187;49.412;20.956;2023-01-15T04:11:36;94691.41;;;1.77;100.00
22047;BME280;11187;49.412;20.956;2023-01-15T04:14:12;94696.50;;;1.82;100.00
22047;BME280;11187;49.412;20.956;2023-01-15T04:17:07;94701.53;;;1.83;100.00
22047;BME280;11187;49.412;20.956;2023-01-15T04:19:40;94695.69;;;1.87;100.00
22047;BME280;11187;49.412;20.956;2023-01-15T04:22:34;94699.91;;;1.90;100.00
22047;BME280;11187;49.412;20.956;2023-01-15T04:25:28;94697.41;;;1.92;100.00
22047;BME280;11187;49.412;20.956;2023-01-15T04:28:01;94690.69;;;1.94;100.00
22047;BME280;11187;49.412;20.956;2023-01-15T04:30:48;94690.72;;;1.98;100.00
22047;BME280;11187;49.412;20.956;2023-01-15T04:33:21;94692.44;;;2.01;100.00
22047;BME280;11187;49.412;20.956;2023-01-15T04:36:08;94684.00;;;2.02;100.00
22047;BME280;11187;49.412;20.956;2023-01-15T04:38:42;94684.03;;;2.05;100.00
22047;BME280;11187;49.412;20.956;2023-01-15T04:41:29;94673.94;;;2.06;100.00
22047;BME280;11187;49.412;20.956;2023-01-15T04:44:21;94671.44;;;2.08;100.00
22047;BME280;11187;49.412;20.956;2023-01-15T04:47:08;94677.38;;;2.12;100.00
22047;BME280;11187;49.412;20.956;2023-01-15T04:49:41;94676.53;;;2.14;100.00
22047;BME280;11187;49.412;20.956;2023-01-15T04:52:36;94674.81;;;2.13;100.00
22047;BME280;11187;49.412;20.956;2023-01-15T04:55:09;94673.19;;;2.17;100.00
22047;BME280;11187;49.412;20.956;2023-01-15T04:58:03;94684.16;;;2.20;100.00
22047;BME280;11187;49.412;20.956;2023-01-15T05:00:57;94680.75;;;2.20;100.00
22047;BME280;11187;49.412;20.956;2023-01-15T05:03:32;94679.09;;;2.22;100.00
22047;BME280;11187;49.412;20.956;2023-01-15T05:06:26;94679.94;;;2.24;100.00
22047;BME280;11187;49.412;20.956;2023-01-15T05:09:01;94672.41;;;2.28;100.00
22047;BME280;11187;49.412;20.956;2023-01-15T05:11:48;94666.50;;;2.26;100.00
22047;BME280;11187;49.412;20.956;2023-01-15T05:14:21;94674.09;;;2.28;100.00
22047;BME280;11187;49.412;20.956;2023-01-15T05:17:08;94675.78;;;2.30;100.00
22047;BME280;11187;49.412;20.956;2023-01-15T05:19:41;94673.25;;;2.30;100.00
22047;BME280;11187;49.412;20.956;2023-01-15T05:22:28;94669.06;;;2.33;100.00
22047;BME280;11187;49.412;20.956;2023-01-15T05:25:01;94664.84;;;2.32;100.00
22047;BME280;11187;49.412;20.956;2023-01-15T05:27:49;94659.78;;;2.32;100.00
22047;BME280;11187;49.412;20.956;2023-01-15T05:30:22;94670.75;;;2.32;100.00
22047;BME280;11187;49.412;20.956;2023-01-15T05:33:09;94669.06;;;2.33;100.00
22047;BME280;11187;49.412;20.956;2023-01-15T05:35:42;94666.53;;;2.33;100.00
22047;BME280;11187;49.412;20.956;2023-01-15T05:38:36;94673.25;;;2.30;100.00
22047;BME280;11187;49.412;20.956;2023-01-15T05:41:30;94666.53;;;2.29;100.00
22047;BME280;11187;49.412;20.956;2023-01-15T05:44:26;94654.72;;;2.28;100.00
22047;BME280;11187;49.412;20.956;2023-01-15T05:47:13;94649.66;;;2.25;100.00
22047;BME280;11187;49.412;20.956;2023-01-15T05:49:48;94643.78;;;2.25;100.00
22047;BME280;11187;49.412;20.956;2023-01-15T05:52:42;94652.16;;;2.24;100.00
22047;BME280;11187;49.412;20.956;2023-01-15T05:55:36;94650.50;;;2.24;100.00
22047;BME280;11187;49.412;20.956;2023-01-15T05:58:09;94655.53;;;2.24;100.00
22047;BME280;11187;49.412;20.956;2023-01-15T06:00:56;94650.50;;;2.23;100.00
22047;BME280;11187;49.412;20.956;2023-01-15T06:03:36;94655.56;;;2.23;100.00
22047;BME280;11187;49.412;20.956;2023-01-15T06:06:23;94655.53;;;2.24;100.00
22047;BME280;11187;49.412;20.956;2023-01-15T06:08:56;94651.34;;;2.23;100.00
22047;BME280;11187;49.412;20.956;2023-01-15T06:11:44;94659.78;;;2.25;100.00
22047;BME280;11187;49.412;20.956;2023-01-15T06:14:17;94653.06;;;2.27;100.00
22047;BME280;11187;49.412;20.956;2023-01-15T06:17:11;94648.84;;;2.29;100.00
22047;BME280;11187;49.412;20.956;2023-01-15T06:20:05;94637.03;;;2.28;100.00
22047;BME280;11187;49.412;20.956;2023-01-15T06:22:38;94642.94;;;2.30;100.00
22047;BME280;11187;49.412;20.956;2023-01-15T06:25:25;94635.34;;;2.29;100.00
22047;BME280;11187;49.412;20.956;2023-01-15T06:27:58;94631.16;;;2.31;100.00
22047;BME280;11187;49.412;20.956;2023-01-15T06:30:45;94631.19;;;2.34;100.00
22047;BME280;11187;49.412;20.956;2023-01-15T06:33:18;94614.34;;;2.36;100.00
22047;BME280;11187;49.412;20.956;2023-01-15T06:36:08;94619.44;;;2.39;100.00
22047;BME280;11187;49.412;20.956;2023-01-15T06:38:43;94616.91;;;2.39;100.00
22047;BME280;11187;49.412;20.956;2023-01-15T06:41:37;94607.66;;;2.41;100.00
22047;BME280;11187;49.412;20.956;2023-01-15T06:44:49;94598.38;;;2.45;100.00
22047;BME280;11187;49.412;20.956;2023-01-15T06:48:01;94600.06;;;2.44;100.00
22047;BME280;11187;49.412;20.956;2023-01-15T06:50:34;94607.66;;;2.47;100.00
22047;BME280;11187;49.412;20.956;2023-01-15T06:53:21;94602.59;;;2.47;100.00
22047;BME280;11187;49.412;20.956;2023-01-15T06:55:54;94600.09;;;2.49;100.00
22047;BME280;11187;49.412;20.956;2023-01-15T06:58:41;94605.16;;;2.49;100.00
22047;BME280;11187;49.412;20.956;2023-01-15T07:01:14;94606.84;;;2.51;100.00
22047;BME280;11187;49.412;20.956;2023-01-15T07:04:01;94602.66;;;2.55;100.00
22047;BME280;11187;49.412;20.956;2023-01-15T07:06:34;94607.72;;;2.58;100.00
22047;BME280;11187;49.412;20.956;2023-01-15T07:09:28;94611.09;;;2.60;100.00
22047;BME280;11187;49.412;20.956;2023-01-15T07:12:22;94626.25;;;2.63;100.00
22047;BME280;11187;49.412;20.956;2023-01-15T07:14:55;94629.66;;;2.67;100.00
22047;BME280;11187;49.412;20.956;2023-01-15T07:17:42;94622.94;;;2.69;100.00
22047;BME280;11187;49.412;20.956;2023-01-15T07:20:15;94627.13;;;2.70;100.00
22047;BME280;11187;49.412;20.956;2023-01-15T07:23:09;94617.03;;;2.73;100.00
22047;BME280;11187;49.412;20.956;2023-01-15T07:26:03;94622.09;;;2.76;100.00
22047;BME280;11187;49.412;20.956;2023-01-15T07:28:57;94612.00;;;2.76;100.00
22047;BME280;11187;49.412;20.956;2023-01-15T07:31:33;94602.72;;;2.77;100.00
22047;BME280;11187;49.412;20.956;2023-01-15T07:34:27;94609.47;;;2.79;100.00
22047;BME280;11187;49.412;20.956;2023-01-15T07:37:21;94606.09;;;2.79;100.00
22047;BME280;11187;49.412;20.956;2023-01-15T07:39:54;94609.47;;;2.79;100.00
22047;BME280;11187;49.412;20.956;2023-01-15T07:42:48;94618.78;;;2.82;100.00
22047;BME280;11187;49.412;20.956;2023-01-15T07:45:41;94608.66;;;2.82;100.00
22047;BME280;11187;49.412;20.956;2023-01-15T07:48:47;94615.41;;;2.84;100.00
22047;BME280;11187;49.412;20.956;2023-01-15T07:51:39;94615.38;;;2.86;100.00
22047;BME280;11187;49.412;20.956;2023-01-15T07:54:26;94599.41;;;2.87;100.00
22047;BME280;11187;49.412;20.956;2023-01-15T07:57:01;94596.03;;;2.91;100.00
22047;BME280;11187;49.412;20.956;2023-01-15T07:59:56;94583.41;;;2.91;100.00
22047;BME280;11187;49.412;20.956;2023-01-15T08:02:28;94577.50;;;2.93;100.00
22047;BME280;11187;49.412;20.956;2023-01-15T08:05:22;94593.53;;;2.99;100.00
22047;BME280;11187;49.412;20.956;2023-01-15T08:07:55;94591.84;;;3.01;99.98
22047;BME280;11187;49.412;20.956;2023-01-15T08:10:43;94599.41;;;2.99;99.75
22047;BME280;11187;49.412;20.956;2023-01-15T08:13:34;94609.56;;;3.02;100.00
22047;BME280;11187;49.412;20.956;2023-01-15T08:16:39;94609.53;;;3.01;99.55
22047;BME280;11187;49.412;20.956;2023-01-15T08:19:12;94612.91;;;3.01;99.91
22047;BME280;11187;49.412;20.956;2023-01-15T08:22:06;94616.28;;;3.03;99.72
22047;BME280;11187;49.412;20.956;2023-01-15T08:24:41;94616.31;;;3.05;99.79
22047;BME280;11187;49.412;20.956;2023-01-15T08:27:28;94609.56;;;3.05;99.77
22047;BME280;11187;49.412;20.956;2023-01-15T08:30:08;94605.34;;;3.09;100.00
22047;BME280;11187;49.412;20.956;2023-01-15T08:33:03;94616.31;;;3.16;100.00
22047;BME280;11187;49.412;20.956;2023-01-15T08:35:57;94613.78;;;3.12;99.72
22047;BME280;11187;49.412;20.956;2023-01-15T08:38:30;94609.56;;;3.13;99.43
22047;BME280;11187;49.412;20.956;2023-01-15T08:41:17;94618.03;;;3.18;99.72
22047;BME280;11187;49.412;20.956;2023-01-15T08:43:50;94604.50;;;3.18;98.91
22047;BME280;11187;49.412;20.956;2023-01-15T08:46:38;94605.38;;;3.26;99.29
22047;BME280;11187;49.412;20.956;2023-01-15T08:49:11;94610.44;;;3.32;98.87
22047;BME280;11187;49.412;20.956;2023-01-15T08:51:58;94618.88;;;3.34;98.18
22047;BME280;11187;49.412;20.956;2023-01-15T08:54:32;94621.41;;;3.37;98.34
22047;BME280;11187;49.412;20.956;2023-01-15T08:57:21;94621.44;;;3.43;97.66
22047;BME280;11187;49.412;20.956;2023-01-15T08:59:54;94615.50;;;3.49;97.91
22047;BME280;11187;49.412;20.956;2023-01-15T09:02:48;94613.81;;;3.49;96.12
22047;BME280;11187;49.412;20.956;2023-01-15T09:05:42;94601.19;;;3.55;96.45
22047;BME280;11187;49.412;20.956;2023-01-15T09:08:15;94598.63;;;3.63;96.47
22047;BME280;11187;49.412;20.956;2023-01-15T09:11:04;94602.88;;;3.70;96.45
22047;BME280;11187;49.412;20.956;2023-01-15T09:13:38;94595.28;;;3.78;96.09
22047;BME280;11187;49.412;20.956;2023-01-15T09:16:30;94588.50;;;3.83;95.37
22047;BME280;11187;49.412;20.956;2023-01-15T09:19:08;94584.28;;;3.88;95.62
22047;BME280;11187;49.412;20.956;2023-01-15T09:21:55;94582.59;;;3.90;94.33
22047;BME280;11187;49.412;20.956;2023-01-15T09:24:28;94567.41;;;3.98;94.74
22047;BME280;11187;49.412;20.956;2023-01-15T09:27:22;94558.94;;;4.01;94.36
22047;BME280;11187;49.412;20.956;2023-01-15T09:30:19;94553.03;;;3.97;93.14
22047;BME280;11187;49.412;20.956;2023-01-15T09:32:52;94545.44;;;3.94;92.50
22047;BME280;11187;49.412;20.956;2023-01-15T09:35:41;94528.56;;;3.91;93.01
22047;BME280;11187;49.412;20.956;2023-01-15T09:38:17;94525.22;;;3.91;93.34
22047;BME280;11187;49.412;20.956;2023-01-15T09:41:10;94525.19;;;3.92;93.47
22047;BME280;11187;49.412;20.956;2023-01-15T09:50:56;94511.69;;;3.92;93.13
22047;BME280;11187;49.412;20.956;2023-01-15T09:53:55;94517.59;;;3.88;92.67
22047;BME280;11187;49.412;20.956;2023-01-15T09:56:45;94500.75;;;3.81;93.08
22047;BME280;11187;49.412;20.956;2023-01-15T09:59:28;94486.38;;;3.81;93.32
22047;BME280;11187;49.412;20.956;2023-01-15T10:02:42;94493.97;;;3.83;93.05
22047;BME280;11187;49.412;20.956;2023-01-15T10:05:26;94494.81;;;3.95;93.25
22047;BME280;11187;49.412;20.956;2023-01-15T10:08:28;94493.09;;;4.01;92.10
22047;BME280;11187;49.412;20.956;2023-01-15T10:11:22;94471.09;;;4.10;92.98
22047;BME280;11187;49.412;20.956;2023-01-15T10:14:42;94471.94;;;4.11;91.76
22047;BME280;11187;49.412;20.956;2023-01-15T10:17:43;94470.25;;;4.16;92.37
22047;BME280;11187;49.412;20.956;2023-01-15T10:26:37;94428.84;;;4.18;91.54
22047;BME280;11187;49.412;20.956;2023-01-15T10:32:55;94433.13;;;4.09;92.03
22047;BME280;11187;49.412;20.956;2023-01-15T10:35:59;94423.88;;;4.00;91.09
22047;BME280;11187;49.412;20.956;2023-01-15T10:51:20;94415.50;;;3.76;92.69
22047;BME280;11187;49.412;20.956;2023-01-15T10:54:11;94400.34;;;3.70;92.55
22047;BME280;11187;49.412;20.956;2023-01-15T10:57:14;94401.19;;;3.71;93.08
22047;BME280;11187;49.412;20.956;2023-01-15T11:00:09;94400.34;;;3.69;93.01
22047;BME280;11187;49.412;20.956;2023-01-15T11:03:00;94394.47;;;3.68;93.32
22047;BME280;11187;49.412;20.956;2023-01-15T11:05:41;94384.34;;;3.68;93.00
22047;BME280;11187;49.412;20.956;2023-01-15T11:08:23;94401.22;;;3.66;92.88
22047;BME280;11187;49.412;20.956;2023-01-15T11:11:37;94396.13;;;3.71;93.47
22047;BME280;11187;49.412;20.956;2023-01-15T11:14:38;94390.22;;;3.67;93.86
22047;BME280;11187;49.412;20.956;2023-01-15T11:17:43;94385.16;;;3.70;94.25
22047;BME280;11187;49.412;20.956;2023-01-15T11:20:49;94391.91;;;3.67;93.76
22047;BME280;11187;49.412;20.956;2023-01-15T11:23:23;94386.00;;;3.63;94.08
22047;BME280;11187;49.412;20.956;2023-01-15T11:26:25;94375.06;;;3.63;94.04
22047;BME280;11187;49.412;20.956;2023-01-15T11:29:29;94382.66;;;3.60;94.21
22047;BME280;11187;49.412;20.956;2023-01-15T11:32:18;94373.34;;;3.63;94.30
22047;BME280;11187;49.412;20.956;2023-01-15T11:35:17;94370.84;;;3.62;94.54
22047;BME280;11187;49.412;20.956;2023-01-15T11:38:13;94350.59;;;3.60;94.70
22047;BME280;11187;49.412;20.956;2023-01-15T11:41:00;94359.91;;;3.53;94.28
22047;BME280;11187;49.412;20.956;2023-01-15T11:43:57;94354.84;;;3.53;94.55
22047;BME280;11187;49.412;20.956;2023-01-15T11:47:11;94360.75;;;3.55;94.56
22047;BME280;11187;49.412;20.956;2023-01-15T11:50:15;94348.94;;;3.58;94.51
22047;BME280;11187;49.412;20.956;2023-01-15T11:53:26;94349.78;;;3.53;94.50
22047;BME280;11187;49.412;20.956;2023-01-15T11:56:03;94343.06;;;3.52;94.65
22047;BME280;11187;49.412;20.956;2023-01-15T11:58:54;94357.41;;;3.50;94.44
22047;BME280;11187;49.412;20.956;2023-01-15T12:01:31;94350.66;;;3.48;94.43
22047;BME280;11187;49.412;20.956;2023-01-15T12:04:39;94342.22;;;3.44;94.34
22047;BME280;11187;49.412;20.956;2023-01-15T12:07:19;94343.06;;;3.46;94.30
22047;BME280;11187;49.412;20.956;2023-01-15T12:10:20;94339.66;;;3.52;94.53
22047;BME280;11187;49.412;20.956;2023-01-15T12:13:32;94330.41;;;3.51;94.60
22047;BME280;11187;49.412;20.956;2023-01-15T12:19:36;94315.22;;;3.49;95.06
22047;BME280;11187;49.412;20.956;2023-01-15T12:25:55;94309.34;;;3.46;94.99
22047;BME280;11187;49.412;20.956;2023-01-15T12:28:34;94300.06;;;3.43;95.07
22047;BME280;11187;49.412;20.956;2023-01-15T12:31:28;94301.75;;;3.46;95.64
22047;BME280;11187;49.412;20.956;2023-01-15T12:37:26;94303.44;;;3.45;94.38
22047;BME280;11187;49.412;20.956;2023-01-15T12:43:22;94310.19;;;3.40;94.85
22047;BME280;11187;49.412;20.956;2023-01-15T12:46:38;94319.47;;;3.38;95.01
22047;BME280;11187;49.412;20.956;2023-01-15T12:49:47;94314.44;;;3.35;94.83
22047;BME280;11187;49.412;20.956;2023-01-15T12:52:26;94319.50;;;3.35;94.79
22047;BME280;11187;49.412;20.956;2023-01-15T12:55:18;94323.72;;;3.33;95.29
22047;BME280;11187;49.412;20.956;2023-01-15T12:58:03;94323.69;;;3.38;95.17
22047;BME280;11187;49.412;20.956;2023-01-15T13:01:17;94327.09;;;3.37;95.32
22047;BME280;11187;49.412;20.956;2023-01-15T13:04:29;94334.72;;;3.27;94.34
22047;BME280;11187;49.412;20.956;2023-01-15T13:07:15;94331.31;;;3.27;95.29
22047;BME280;11187;49.412;20.956;2023-01-15T13:10:24;94328.78;;;3.27;94.86
22047;BME280;11187;49.412;20.956;2023-01-15T13:13:12;94322.06;;;3.26;95.08
22047;BME280;11187;49.412;20.956;2023-01-15T13:22:16;94330.53;;;3.14;94.91
22047;BME280;11187;49.412;20.956;2023-01-15T13:24:54;94319.53;;;3.15;95.41
22047;BME280;11187;49.412;20.956;2023-01-15T13:28:11;94322.91;;;3.17;95.77
22047;BME280;11187;49.412;20.956;2023-01-15T13:33:43;94319.53;;;3.15;95.71
22047;BME280;11187;49.412;20.956;2023-01-15T13:36:25;94329.69;;;3.13;96.01
22047;BME280;11187;49.412;20.956;2023-01-15T13:39:17;94326.31;;;3.10;96.15
22047;BME280;11187;49.412;20.956;2023-01-15T13:41:52;94317.03;;;3.06;96.54
22047;BME280;11187;49.412;20.956;2023-01-15T13:48:02;94315.38;;;3.05;96.64
22047;BME280;11187;49.412;20.956;2023-01-15T13:51:01;94316.22;;;3.05;96.55
22047;BME280;11187;49.412;20.956;2023-01-15T13:53:56;94312.84;;;3.03;96.75
22047;BME280;11187;49.412;20.956;2023-01-15T13:56:52;94317.88;;;3.08;97.12
22047;BME280;11187;49.412;20.956;2023-01-15T13:59:43;94318.75;;;3.07;97.38
22047;BME280;11187;49.412;20.956;2023-01-15T14:02:37;94311.97;;;3.06;97.42
22047;BME280;11187;49.412;20.956;2023-01-15T14:05:34;94317.88;;;3.08;97.51
22047;BME280;11187;49.412;20.956;2023-01-15T14:08:36;94305.25;;;3.05;97.74
22047;BME280;11187;49.412;20.956;2023-01-15T14:11:33;94310.31;;;3.05;97.96
22047;BME280;11187;49.412;20.956;2023-01-15T14:14:58;94293.47;;;3.02;98.16
22047;BME280;11187;49.412;20.956;2023-01-15T14:18:12;94296.00;;;3.02;98.47
22047;BME280;11187;49.412;20.956;2023-01-15T14:27:05;94295.13;;;3.03;98.90
22047;BME280;11187;49.412;20.956;2023-01-15T14:35:33;94279.97;;;2.97;99.75
22047;BME280;11187;49.412;20.956;2023-01-15T14:38:24;94275.78;;;2.96;99.65
22047;BME280;11187;49.412;20.956;2023-01-15T14:41:01;94273.25;;;2.91;99.63
22047;BME280;11187;49.412;20.956;2023-01-15T14:43:51;94278.31;;;2.93;99.95
22047;BME280;11187;49.412;20.956;2023-01-15T14:46:29;94269.03;;;2.93;100.00
22047;BME280;11187;49.412;20.956;2023-01-15T14:49:29;94273.25;;;2.95;100.00
22047;BME280;11187;49.412;20.956;2023-01-15T14:52:03;94269.88;;;2.94;100.00
22047;BME280;11187;49.412;20.956;2023-01-15T14:54:50;94269.84;;;2.97;100.00
22047;BME280;11187;49.412;20.956;2023-01-15T14:57:25;94265.66;;;2.96;100.00
22047;BME280;11187;49.412;20.956;2023-01-15T15:00:19;94264.84;;;2.91;100.00
22047;BME280;11187;49.412;20.956;2023-01-15T15:02:56;94272.41;;;2.94;100.00
22047;BME280;11187;49.412;20.956;2023-01-15T15:05:47;94271.56;;;2.93;100.00
22047;BME280;11187;49.412;20.956;2023-01-15T15:08:25;94273.25;;;2.96;100.00
22047;BME280;11187;49.412;20.956;2023-01-15T15:11:24;94269.03;;;2.95;100.00
22047;BME280;11187;49.412;20.956;2023-01-15T15:14:19;94273.25;;;2.96;100.00
22047;BME280;11187;49.412;20.956;2023-01-15T15:17:20;94267.34;;;2.97;100.00
22047;BME280;11187;49.412;20.956;2023-01-15T15:26:40;94263.16;;;2.90;100.00
22047;BME280;11187;49.412;20.956;2023-01-15T15:29:33;94256.41;;;2.89;100.00
22047;BME280;11187;49.412;20.956;2023-01-15T15:32:31;94261.44;;;2.90;100.00
22047;BME280;11187;49.412;20.956;2023-01-15T15:35:25;94260.66;;;2.88;100.00
22047;BME280;11187;49.412;20.956;2023-01-15T15:38:21;94261.47;;;2.89;100.00
22047;BME280;11187;49.412;20.956;2023-01-15T15:41:00;94259.81;;;2.86;100.00
22047;BME280;11187;49.412;20.956;2023-01-15T15:43:54;94252.19;;;2.83;100.00
22047;BME280;11187;49.412;20.956;2023-01-15T15:47:22;94252.22;;;2.80;100.00
22047;BME280;11187;49.412;20.956;2023-01-15T15:50:34;94258.97;;;2.77;100.00
22047;BME280;11187;49.412;20.956;2023-01-15T15:53:30;94264.88;;;2.77;100.00
22047;BME280;11187;49.412;20.956;2023-01-15T15:56:05;94258.97;;;2.74;100.00
22047;BME280;11187;49.412;20.956;2023-01-15T15:58:52;94263.19;;;2.70;100.00
22047;BME280;11187;49.412;20.956;2023-01-15T16:01:27;94258.16;;;2.68;100.00
22047;BME280;11187;49.412;20.956;2023-01-15T16:04:17;94261.53;;;2.64;100.00
22047;BME280;11187;49.412;20.956;2023-01-15T16:06:52;94258.16;;;2.61;100.00
22047;BME280;11187;49.412;20.956;2023-01-15T16:09:49;94268.28;;;2.59;100.00